Time;durP1;ratioP1;P1;durP2;ratioP2;P2;SDS_P1;SDS_P2;PMS_P1;PMS_P2;Temp;Humidity;BMP_temperature;BMP_pressure;BME280_temperature;BME280_humidity;BME280_pressure;Samples;Min_cycle;Max_cycle;Signal;HPM_P1;HPM_P2
2023/09/13 00:02:18;;;;;;;3.50;1.30;;;17.80;99.90;;;;;;5066324;28;20045;-86
2023/09/13 00:04:44;;;;;;;4.40;1.20;;;17.80;99.90;;;;;;5060297;28;20191;-86
2023/09/13 00:07:10;;;;;;;3.88;1.20;;;17.70;99.90;;;;;;5029719;28;20126;-86
2023/09/13 00:09:38;;;;;;;2.05;0.98;;;17.70;99.90;;;;;;5049373;28;20131;-86
2023/09/13 00:12:04;;;;;;;4.25;1.30;;;17.70;99.90;;;;;;5030293;28;20060;-86
2023/09/13 00:14:29;;;;;;;2.67;1.15;;;17.70;99.90;;;;;;5062390;28;20041;-86
2023/09/13 00:16:56;;;;;;;2.55;1.08;;;17.60;99.90;;;;;;5037858;28;20071;-85
2023/09/13 00:19:21;;;;;;;1.88;1.05;;;17.60;99.90;;;;;;5062580;28;20464;-86
2023/09/13 00:21:48;;;;;;;3.08;1.30;;;17.60;99.90;;;;;;5049709;28;20052;-86
2023/09/13 00:24:14;;;;;;;2.97;1.20;;;17.50;99.90;;;;;;5064992;28;20135;-86
2023/09/13 00:26:39;;;;;;;1.85;0.90;;;17.50;99.90;;;;;;5066271;28;20048;-86
2023/09/13 00:29:05;;;;;;;2.70;1.10;;;17.50;99.90;;;;;;5062724;28;20405;-87
2023/09/13 00:31:31;;;;;;;3.05;1.30;;;17.50;99.90;;;;;;5056024;28;20127;-86
2023/09/13 00:33:56;;;;;;;1.67;1.10;;;17.40;99.90;;;;;;5060002;28;20057;-86
2023/09/13 00:36:22;;;;;;;3.42;1.20;;;17.40;99.90;;;;;;5065561;28;20072;-86
2023/09/13 00:38:48;;;;;;;2.35;1.05;;;17.40;99.90;;;;;;5065269;28;20050;-85
2023/09/13 00:41:13;;;;;;;1.88;0.90;;;17.30;99.90;;;;;;5057658;28;20067;-86
2023/09/13 00:43:39;;;;;;;1.17;1.00;;;17.30;99.90;;;;;;5049530;28;20036;-86
2023/09/13 00:46:05;;;;;;;3.03;1.10;;;17.30;99.90;;;;;;5055103;28;20033;-86
2023/09/13 00:48:35;;;;;;;2.63;1.00;;;17.30;99.90;;;;;;5047812;28;20421;-86
2023/09/13 00:51:02;;;;;;;1.50;0.82;;;17.30;99.90;;;;;;5062405;28;20040;-86
2023/09/13 00:53:30;;;;;;;3.17;1.10;;;17.30;99.90;;;;;;5065202;28;20037;-86
2023/09/13 00:55:56;;;;;;;2.65;1.10;;;17.30;99.90;;;;;;5063375;28;20412;-86
2023/09/13 00:58:23;;;;;;;2.05;1.00;;;17.30;99.90;;;;;;5041897;28;20051;-86
2023/09/13 01:00:53;;;;;;;3.22;1.00;;;17.20;99.90;;;;;;5062528;28;20045;-85
2023/09/13 01:03:20;;;;;;;1.23;0.80;;;17.20;99.90;;;;;;5058122;28;20123;-86
2023/09/13 01:05:48;;;;;;;1.42;0.80;;;17.20;99.90;;;;;;5061194;28;20533;-86
2023/09/13 01:08:15;;;;;;;3.55;1.00;;;17.20;99.90;;;;;;5055384;28;20059;-85
2023/09/13 01:10:41;;;;;;;1.65;0.80;;;17.20;99.90;;;;;;5064067;28;20036;-86
2023/09/13 01:13:06;;;;;;;2.58;1.00;;;17.20;99.90;;;;;;5050954;28;20041;-86
2023/09/13 01:15:38;;;;;;;2.30;1.00;;;17.20;99.90;;;;;;5063466;28;20068;-86
2023/09/13 01:18:17;;;;;;;3.63;1.10;;;17.20;99.90;;;;;;5041168;28;20466;-86
2023/09/13 01:21:05;;;;;;;0.73;0.68;;;17.20;99.90;;;;;;5062333;28;20311;-86
2023/09/13 01:23:57;;;;;;;1.75;0.90;;;17.20;99.90;;;;;;5063054;28;20048;-86
2023/09/13 01:26:47;;;;;;;1.20;0.70;;;17.10;99.90;;;;;;5047296;28;20048;-86
2023/09/13 01:29:15;;;;;;;0.77;0.75;;;17.10;99.90;;;;;;5060220;28;20446;-86
2023/09/13 01:31:42;;;;;;;1.70;0.85;;;17.10;99.90;;;;;;5059375;28;20134;-86
2023/09/13 01:34:08;;;;;;;3.42;1.10;;;17.10;99.90;;;;;;5068680;28;20147;-86
2023/09/13 01:36:34;;;;;;;2.05;1.00;;;17.10;99.90;;;;;;5066765;28;20131;-86
2023/09/13 01:39:01;;;;;;;3.72;1.02;;;17.10;99.90;;;;;;5064136;28;20116;-86
2023/09/13 01:41:33;;;;;;;2.97;1.20;;;17.10;99.90;;;;;;5083570;28;20123;-86
2023/09/13 01:43:59;;;;;;;1.95;0.90;;;17.00;99.90;;;;;;5042639;28;20509;-86
2023/09/13 01:46:42;;;;;;;1.95;1.10;;;17.00;99.90;;;;;;5069300;28;20070;-86
2023/09/13 01:49:10;;;;;;;3.72;1.00;;;17.10;99.90;;;;;;5070489;28;20036;-85
2023/09/13 01:51:37;;;;;;;2.22;1.00;;;17.00;99.90;;;;;;5057504;28;20040;-86
2023/09/13 01:54:03;;;;;;;1.45;0.82;;;17.00;99.90;;;;;;5070215;28;20202;-85
2023/09/13 01:56:28;;;;;;;2.15;0.98;;;17.00;99.90;;;;;;5060869;28;20135;-86
2023/09/13 01:58:54;;;;;;;2.63;1.00;;;17.00;99.90;;;;;;5058293;28;20052;-86
2023/09/13 02:01:20;;;;;;;1.83;0.98;;;17.00;99.90;;;;;;5045818;28;20126;-86
2023/09/13 02:03:46;;;;;;;2.47;1.10;;;17.00;99.90;;;;;;5081148;28;20090;-86
2023/09/13 02:06:12;;;;;;;3.53;1.30;;;17.00;99.90;;;;;;5072903;28;20111;-85
2023/09/13 02:08:40;;;;;;;2.47;1.13;;;17.00;99.90;;;;;;5067927;28;20040;-85
2023/09/13 02:11:06;;;;;;;3.55;1.30;;;17.00;99.90;;;;;;5067637;28;20177;-86
2023/09/13 02:13:32;;;;;;;1.58;1.00;;;17.00;99.90;;;;;;5060099;28;20103;-86
2023/09/13 02:15:58;;;;;;;2.58;1.10;;;17.00;99.90;;;;;;5041799;28;20051;-86
2023/09/13 02:18:24;;;;;;;3.05;1.20;;;17.00;99.90;;;;;;5061910;28;20135;-85
2023/09/13 02:20:50;;;;;;;1.75;0.90;;;17.00;99.90;;;;;;5069596;28;20126;-86
2023/09/13 02:23:16;;;;;;;3.53;1.33;;;17.00;99.90;;;;;;5066932;28;20051;-86
2023/09/13 02:25:44;;;;;;;1.58;1.25;;;17.00;99.90;;;;;;5057678;28;20493;-85
2023/09/13 02:28:11;;;;;;;1.60;0.80;;;17.00;99.90;;;;;;5062928;28;20438;-86
2023/09/13 02:30:37;;;;;;;2.15;0.90;;;17.00;99.90;;;;;;5070565;28;20040;-86
2023/09/13 02:33:04;;;;;;;1.67;0.88;;;17.00;99.90;;;;;;5080288;28;20060;-85
2023/09/13 02:35:30;;;;;;;1.77;1.00;;;17.00;99.90;;;;;;5046697;28;20519;-85
2023/09/13 02:37:57;;;;;;;2.47;1.00;;;17.00;99.90;;;;;;5041389;28;20071;-85
2023/09/13 02:40:23;;;;;;;1.08;0.80;;;18.10;99.90;;;;;;5042436;28;20045;-86
2023/09/13 02:42:49;;;;;;;1.00;0.82;;;17.00;99.90;;;;;;5060706;28;20040;-85
2023/09/13 02:45:15;;;;;;;2.08;1.10;;;16.90;99.90;;;;;;5059490;28;20076;-85
2023/09/13 02:47:42;;;;;;;1.30;0.75;;;17.00;99.90;;;;;;5046682;28;20390;-85
2023/09/13 02:50:08;;;;;;;2.17;0.82;;;17.00;99.90;;;;;;5057704;28;20040;-86
2023/09/13 02:52:34;;;;;;;1.23;0.80;;;17.00;99.90;;;;;;5050769;28;20036;-86
2023/09/13 02:55:01;;;;;;;2.67;1.23;;;17.00;99.90;;;;;;5062375;28;20494;-85
2023/09/13 02:57:27;;;;;;;1.20;0.80;;;17.00;99.90;;;;;;5063502;28;20037;-85
2023/09/13 02:59:53;;;;;;;1.80;1.00;;;17.00;99.90;;;;;;5056059;28;20500;-86
2023/09/13 03:02:20;;;;;;;2.67;1.10;;;17.00;99.90;;;;;;5078179;28;20047;-85
2023/09/13 03:04:50;;;;;;;2.00;1.02;;;17.00;99.90;;;;;;5052714;28;20240;-86
2023/09/13 03:07:16;;;;;;;1.02;0.70;;;17.00;99.90;;;;;;5064698;28;20476;-86
2023/09/13 03:09:41;;;;;;;1.92;0.90;;;17.00;99.90;;;;;;5062670;28;20075;-85
2023/09/13 03:12:07;;;;;;;2.80;0.90;;;17.00;99.90;;;;;;5062891;28;20044;-85
2023/09/13 03:14:33;;;;;;;2.28;1.05;;;17.00;99.90;;;;;;5082686;28;20043;-85
2023/09/13 03:16:59;;;;;;;3.97;1.40;;;17.00;99.90;;;;;;5067886;28;20048;-86
2023/09/13 03:19:25;;;;;;;4.75;1.30;;;16.90;99.90;;;;;;5081003;28;20036;-85
2023/09/13 03:21:50;;;;;;;4.75;1.40;;;16.90;99.90;;;;;;5068185;28;20508;-85
2023/09/13 03:24:16;;;;;;;5.30;1.50;;;16.90;99.90;;;;;;5066106;28;20055;-86
2023/09/13 03:26:42;;;;;;;3.70;1.20;;;16.90;99.90;;;;;;5068690;28;20033;-86
2023/09/13 03:29:07;;;;;;;2.58;1.00;;;16.90;99.90;;;;;;5077362;28;20072;-86
2023/09/13 03:31:36;;;;;;;3.22;1.20;;;16.80;99.90;;;;;;5068125;28;20047;-86
2023/09/13 03:34:02;;;;;;;2.80;0.98;;;16.90;99.90;;;;;;5060506;28;20064;-86
2023/09/13 03:36:28;;;;;;;2.80;1.25;;;16.80;99.90;;;;;;5045840;28;20057;-85
2023/09/13 03:38:54;;;;;;;4.30;1.50;;;16.80;99.90;;;;;;5055361;28;20120;-85
2023/09/13 03:41:22;;;;;;;6.03;1.33;;;16.80;99.90;;;;;;5059199;28;20547;-85
2023/09/13 03:43:49;;;;;;;3.63;1.20;;;16.80;99.90;;;;;;5065823;28;20291;-86
2023/09/13 03:46:15;;;;;;;4.63;1.73;;;16.80;99.90;;;;;;5048033;28;20059;-86
2023/09/13 03:48:41;;;;;;;4.03;1.30;;;16.70;99.90;;;;;;5067215;28;20041;-86
2023/09/13 03:51:07;;;;;;;6.13;2.90;;;16.70;99.90;;;;;;5040680;28;20375;-85
2023/09/13 03:53:34;;;;;;;3.25;1.58;;;16.60;99.90;;;;;;5055098;28;20484;-86
2023/09/13 03:56:01;;;;;;;3.78;1.35;;;16.60;99.90;;;;;;5059860;28;20106;-86
2023/09/13 03:58:26;;;;;;;4.85;1.45;;;16.60;99.90;;;;;;5045731;28;20494;-87
2023/09/13 04:00:53;;;;;;;4.18;1.15;;;16.50;99.90;;;;;;5054874;28;20051;-85
2023/09/13 04:03:20;;;;;;;4.30;1.40;;;16.50;99.90;;;;;;5051919;28;20120;-87
2023/09/13 04:05:46;;;;;;;3.50;1.20;;;16.50;99.90;;;;;;5066497;28;20041;-86
2023/09/13 04:08:12;;;;;;;4.55;1.40;;;16.50;99.90;;;;;;5061714;28;20144;-85
2023/09/13 04:10:38;;;;;;;3.08;1.20;;;16.40;99.90;;;;;;5069723;28;20541;-85
2023/09/13 04:13:04;;;;;;;4.05;1.40;;;16.40;99.90;;;;;;5044855;28;20032;-86
2023/09/13 04:15:30;;;;;;;3.60;1.20;;;16.40;99.90;;;;;;5062122;28;20083;-85
2023/09/13 04:17:55;;;;;;;4.18;1.30;;;16.40;99.90;;;;;;5055979;28;20036;-86
2023/09/13 04:20:22;;;;;;;4.43;1.45;;;16.30;99.90;;;;;;5064623;28;20041;-85
2023/09/13 04:22:48;;;;;;;3.88;1.23;;;16.30;99.90;;;;;;5061361;28;20242;-86
2023/09/13 04:25:14;;;;;;;3.78;1.40;;;16.30;99.90;;;;;;5069763;28;20502;-86
2023/09/13 04:27:43;;;;;;;4.18;1.40;;;16.30;99.90;;;;;;5028188;28;20059;-85
2023/09/13 04:30:10;;;;;;;4.20;1.50;;;16.30;99.90;;;;;;5054849;28;20045;-85
2023/09/13 04:32:35;;;;;;;4.30;1.33;;;16.30;99.90;;;;;;5061620;28;20064;-87
2023/09/13 04:35:01;;;;;;;3.10;1.15;;;16.20;99.90;;;;;;5043012;28;20516;-87
2023/09/13 04:37:27;;;;;;;4.20;1.48;;;16.20;99.90;;;;;;5057699;28;20048;-88
2023/09/13 04:39:53;;;;;;;4.93;1.42;;;16.20;99.90;;;;;;5051773;28;20041;-88
2023/09/13 04:42:19;;;;;;;4.30;1.25;;;16.10;99.90;;;;;;5064523;28;20041;-89
2023/09/13 04:44:45;;;;;;;3.65;1.40;;;16.00;99.90;;;;;;5069801;28;20058;-89
2023/09/13 04:47:10;;;;;;;4.60;1.50;;;16.00;99.90;;;;;;5056055;28;20106;-90
2023/09/13 04:49:36;;;;;;;3.60;1.40;;;15.90;99.90;;;;;;5066555;28;20394;-91
2023/09/13 04:52:03;;;;;;;4.50;1.63;;;15.80;99.90;;;;;;5065020;28;20572;-90
2023/09/13 04:54:29;;;;;;;3.03;1.38;;;15.70;99.90;;;;;;5063072;28;20044;-92
2023/09/13 04:56:55;;;;;;;2.25;1.10;;;15.70;99.90;;;;;;5062495;28;20101;-91
2023/09/13 04:59:24;;;;;;;3.35;1.30;;;15.60;99.90;;;;;;5051662;28;20044;-91
2023/09/13 05:01:50;;;;;;;4.10;1.45;;;15.60;99.90;;;;;;5040034;28;20102;-91
2023/09/13 05:04:15;;;;;;;1.73;1.02;;;15.50;99.90;;;;;;5066465;28;20040;-90
2023/09/13 05:06:41;;;;;;;4.07;1.40;;;15.50;99.90;;;;;;5050901;28;20041;-92
2023/09/13 05:09:07;;;;;;;3.75;1.35;;;15.50;99.90;;;;;;5026528;28;20036;-91
2023/09/13 05:11:33;;;;;;;4.25;1.33;;;15.50;99.90;;;;;;5026752;28;20465;-91
2023/09/13 05:14:09;;;;;;;4.85;1.55;;;15.40;99.90;;;;;;5055809;28;20040;-88
2023/09/13 05:16:35;;;;;;;3.28;1.40;;;15.40;99.90;;;;;;5060645;28;20436;-88
2023/09/13 05:19:00;;;;;;;5.22;1.50;;;15.30;99.90;;;;;;5069556;28;20049;-89
2023/09/13 05:21:26;;;;;;;5.78;1.77;;;15.30;99.90;;;;;;5050641;28;20047;-89
2023/09/13 05:23:52;;;;;;;3.63;1.50;;;15.20;99.90;;;;;;5055946;28;21724;-90
2023/09/13 05:26:18;;;;;;;4.15;1.50;;;15.10;99.90;;;;;;5065906;28;20063;-90
2023/09/13 05:28:43;;;;;;;4.45;1.35;;;15.10;99.90;;;;;;5061061;28;20039;-90
2023/09/13 05:31:09;;;;;;;4.88;1.27;;;15.00;99.90;;;;;;5029783;28;20405;-90
2023/09/13 05:33:35;;;;;;;3.80;1.40;;;15.00;99.90;;;;;;5040318;28;20082;-89
2023/09/13 05:36:00;;;;;;;5.65;1.50;;;15.00;99.90;;;;;;5085479;28;20093;-89
2023/09/13 05:38:26;;;;;;;5.70;1.50;;;14.90;99.90;;;;;;5070809;28;20072;-90
2023/09/13 05:40:52;;;;;;;5.32;1.60;;;14.90;99.90;;;;;;5066434;28;20489;-91
2023/09/13 05:43:17;;;;;;;4.88;1.67;;;14.90;99.90;;;;;;5087954;28;20071;-91
2023/09/13 05:45:43;;;;;;;3.38;1.33;;;14.90;99.90;;;;;;5065214;28;20036;-90
2023/09/13 05:48:09;;;;;;;4.68;1.52;;;14.90;99.90;;;;;;5066536;28;20036;-91
2023/09/13 05:50:35;;;;;;;4.30;1.60;;;14.80;99.90;;;;;;5078087;28;20032;-93
2023/09/13 05:53:00;;;;;;;4.50;1.50;;;14.90;99.90;;;;;;5042962;28;20047;-90
2023/09/13 05:55:26;;;;;;;4.35;1.48;;;14.90;99.90;;;;;;5044189;28;20052;-92
2023/09/13 05:57:52;;;;;;;4.32;1.70;;;14.90;99.90;;;;;;5035551;28;20540;-89
2023/09/13 06:00:18;;;;;;;4.38;1.50;;;14.80;99.90;;;;;;5053630;28;20055;-90
2023/09/13 06:02:44;;;;;;;3.08;1.30;;;14.80;99.90;;;;;;5067881;28;20396;-89
2023/09/13 06:05:10;;;;;;;4.45;1.40;;;14.80;99.90;;;;;;5053266;28;20203;-91
2023/09/13 06:07:36;;;;;;;4.65;1.50;;;14.80;99.90;;;;;;5048759;28;20046;-91
2023/09/13 06:10:03;;;;;;;5.97;1.55;;;14.80;99.90;;;;;;5052252;28;20040;-89
2023/09/13 06:12:30;;;;;;;5.45;1.60;;;14.80;99.90;;;;;;5067512;28;20051;-91
2023/09/13 06:14:57;;;;;;;4.38;1.52;;;14.80;99.90;;;;;;5073222;28;20094;-94
2023/09/13 06:17:23;;;;;;;5.03;1.67;;;14.80;99.90;;;;;;5071303;28;20051;-93
2023/09/13 06:19:50;;;;;;;5.80;1.70;;;14.80;99.90;;;;;;5046573;28;20090;-90
2023/09/13 06:22:17;;;;;;;7.78;1.83;;;14.70;99.90;;;;;;5033561;28;20484;-91
2023/09/13 06:24:46;;;;;;;4.65;1.58;;;14.70;99.90;;;;;;5052442;28;20044;-94
2023/09/13 06:27:12;;;;;;;5.78;1.80;;;14.70;99.90;;;;;;5048824;28;20045;-92
2023/09/13 06:29:38;;;;;;;6.20;2.00;;;14.60;99.90;;;;;;5033750;28;20032;-91
2023/09/13 06:32:04;;;;;;;4.35;1.58;;;14.70;99.90;;;;;;5044758;28;20405;-92
2023/09/13 06:34:30;;;;;;;7.82;2.03;;;14.70;99.90;;;;;;5034219;28;20057;-93
2023/09/13 06:36:55;;;;;;;5.55;1.67;;;14.70;99.90;;;;;;5042867;28;20041;-92
2023/09/13 06:39:21;;;;;;;5.80;1.80;;;14.70;99.90;;;;;;5051087;28;20472;-91
2023/09/13 06:41:47;;;;;;;5.70;1.80;;;14.70;99.90;;;;;;5059205;28;20040;-89
2023/09/13 06:44:16;;;;;;;5.38;1.70;;;14.70;99.90;;;;;;5067101;28;20059;-90
2023/09/13 06:46:42;;;;;;;6.95;1.83;;;14.70;99.90;;;;;;5068950;28;20040;-90
2023/09/13 06:49:08;;;;;;;6.20;1.90;;;14.80;99.90;;;;;;5066342;28;20125;-89
2023/09/13 06:51:34;;;;;;;7.85;2.08;;;14.80;99.90;;;;;;5070330;28;20438;-89
2023/09/13 06:53:59;;;;;;;5.80;1.70;;;14.80;99.90;;;;;;5037242;28;20044;-91
2023/09/13 06:56:25;;;;;;;5.45;1.60;;;14.80;99.90;;;;;;5068326;28;20485;-90
2023/09/13 06:58:53;;;;;;;4.93;1.67;;;14.80;99.90;;;;;;5046466;28;20040;-88
2023/09/13 07:01:19;;;;;;;6.82;1.80;;;14.90;99.90;;;;;;5054758;28;20041;-89
2023/09/13 07:03:45;;;;;;;4.63;1.60;;;14.90;99.90;;;;;;5065148;28;20119;-88
2023/09/13 07:06:11;;;;;;;6.43;1.67;;;14.90;99.90;;;;;;5088264;28;20123;-88
2023/09/13 07:08:37;;;;;;;4.68;1.50;;;14.90;99.90;;;;;;5068220;28;20048;-88
2023/09/13 07:11:03;;;;;;;4.30;1.60;;;14.90;99.90;;;;;;5063894;28;20070;-89
2023/09/13 07:13:29;;;;;;;3.17;1.50;;;14.90;99.90;;;;;;5065805;28;20051;-88
2023/09/13 07:15:54;;;;;;;4.22;1.60;;;14.90;99.90;;;;;;5070334;28;20493;-88
2023/09/13 07:18:20;;;;;;;4.70;1.65;;;14.90;99.90;;;;;;5059667;28;20055;-88
2023/09/13 07:20:46;;;;;;;5.28;1.67;;;14.90;99.90;;;;;;5057931;28;20071;-88
2023/09/13 07:23:12;;;;;;;4.63;1.70;;;14.90;99.90;;;;;;5069557;28;20039;-88
2023/09/13 07:25:37;;;;;;;6.10;1.90;;;14.90;99.90;;;;;;5071579;28;20055;-87
2023/09/13 07:28:03;;;;;;;5.00;1.70;;;14.80;99.90;;;;;;5054348;28;20093;-88
2023/09/13 07:30:29;;;;;;;3.20;1.60;;;14.90;99.90;;;;;;5069971;28;20105;-88
2023/09/13 07:32:55;;;;;;;5.32;1.52;;;14.90;99.90;;;;;;5063502;28;20037;-87
2023/09/13 07:35:21;;;;;;;5.03;1.50;;;14.90;99.90;;;;;;5084647;28;20060;-88
2023/09/13 07:37:47;;;;;;;4.57;1.60;;;15.00;99.90;;;;;;5056470;28;20056;-88
2023/09/13 07:40:13;;;;;;;3.55;1.30;;;15.00;99.90;;;;;;5084277;28;20032;-87
2023/09/13 07:42:39;;;;;;;4.07;1.40;;;15.10;99.90;;;;;;5069679;28;20093;-90
2023/09/13 07:45:06;;;;;;;4.25;1.42;;;15.10;99.90;;;;;;5066137;28;20123;-88
2023/09/13 07:47:32;;;;;;;3.58;1.40;;;15.10;99.90;;;;;;5055358;28;20067;-87
2023/09/13 07:49:59;;;;;;;4.25;1.40;;;15.10;99.90;;;;;;5087591;28;20036;-86
2023/09/13 07:52:25;;;;;;;3.92;1.50;;;15.20;99.90;;;;;;5061732;28;20136;-86
2023/09/13 07:54:51;;;;;;;3.65;1.30;;;15.20;99.90;;;;;;5093244;28;20123;-87
2023/09/13 07:57:17;;;;;;;3.00;1.23;;;15.20;99.90;;;;;;5054441;28;20076;-88
2023/09/13 07:59:43;;;;;;;4.18;1.52;;;15.30;99.90;;;;;;5067924;28;20047;-86
2023/09/13 08:02:09;;;;;;;3.95;1.40;;;15.30;99.90;;;;;;5067974;28;20397;-87
2023/09/13 08:04:35;;;;;;;4.03;1.48;;;15.30;99.90;;;;;;5067291;28;20036;-87
2023/09/13 08:07:02;;;;;;;3.75;1.48;;;15.40;99.90;;;;;;5074969;28;20040;-87
2023/09/13 08:09:28;;;;;;;3.35;1.20;;;15.40;99.90;;;;;;5074782;28;20122;-87
2023/09/13 08:11:54;;;;;;;2.42;1.20;;;15.50;99.90;;;;;;5092849;28;20028;-87
2023/09/13 08:14:20;;;;;;;3.13;1.20;;;15.50;99.90;;;;;;5087863;28;20139;-87
2023/09/13 08:16:46;;;;;;;3.08;1.38;;;15.50;99.90;;;;;;5074540;28;20040;-87
2023/09/13 08:19:12;;;;;;;5.15;1.40;;;15.60;99.90;;;;;;5074491;28;20082;-87
2023/09/13 08:21:41;;;;;;;4.07;1.35;;;15.60;99.90;;;;;;5074205;28;20049;-86
2023/09/13 08:24:06;;;;;;;5.13;1.60;;;15.70;99.90;;;;;;5068062;28;20093;-86
2023/09/13 08:26:32;;;;;;;3.75;1.42;;;15.70;99.90;;;;;;5052468;28;20043;-86
2023/09/13 08:28:58;;;;;;;4.03;1.48;;;15.70;99.90;;;;;;5070868;28;20493;-87
2023/09/13 08:31:25;;;;;;;3.53;1.30;;;15.80;99.90;;;;;;5068104;28;20046;-86
2023/09/13 08:33:54;;;;;;;2.92;1.33;;;15.90;99.90;;;;;;5054616;28;20040;-86
2023/09/13 08:36:21;;;;;;;4.45;1.50;;;15.90;99.90;;;;;;5072515;28;20065;-86
2023/09/13 08:38:46;;;;;;;4.18;1.63;;;16.00;99.90;;;;;;5067377;28;20060;-88
2023/09/13 08:41:14;;;;;;;3.90;1.35;;;16.00;99.90;;;;;;5046762;28;20041;-87
2023/09/13 08:43:41;;;;;;;4.40;1.30;;;16.10;99.90;;;;;;5051119;28;20040;-86
2023/09/13 08:46:08;;;;;;;5.43;1.50;;;16.20;99.90;;;;;;5066479;28;20052;-86
2023/09/13 08:48:34;;;;;;;6.00;1.83;;;16.20;99.90;;;;;;5053793;28;20484;-86
2023/09/13 08:51:04;;;;;;;6.18;1.70;;;16.20;99.90;;;;;;5070654;28;20049;-85
2023/09/13 08:53:32;;;;;;;5.03;1.60;;;16.20;99.90;;;;;;5070337;28;20431;-86
2023/09/13 08:55:59;;;;;;;4.50;1.50;;;16.20;99.90;;;;;;5063722;28;20041;-85
2023/09/13 08:58:26;;;;;;;4.78;1.50;;;16.30;99.90;;;;;;5068824;28;20060;-86
2023/09/13 09:00:53;;;;;;;5.10;1.88;;;16.30;99.90;;;;;;5070807;28;20101;-85
2023/09/13 09:03:23;;;;;;;5.47;1.88;;;16.30;99.90;;;;;;5058781;28;20512;-86
2023/09/13 09:05:50;;;;;;;6.10;1.63;;;16.30;99.90;;;;;;5064840;28;20037;-87
2023/09/13 09:08:17;;;;;;;5.50;1.83;;;16.40;99.90;;;;;;5068123;28;20079;-85
2023/09/13 09:10:43;;;;;;;5.22;1.52;;;16.30;99.90;;;;;;5051050;28;20043;-86
2023/09/13 09:13:10;;;;;;;5.13;1.65;;;16.40;99.90;;;;;;5070093;28;20036;-85
2023/09/13 09:15:39;;;;;;;5.78;1.60;;;16.30;99.90;;;;;;5069759;28;20049;-85
2023/09/13 09:18:09;;;;;;;4.70;1.52;;;15.10;99.90;;;;;;5069987;28;20032;-86
2023/09/13 09:20:39;;;;;;;5.15;1.50;;;16.20;99.90;;;;;;5063558;28;20442;-89
2023/09/13 09:23:07;;;;;;;5.75;1.63;;;16.10;99.90;;;;;;5049943;28;20037;-87
2023/09/13 09:25:33;;;;;;;4.53;1.50;;;15.90;99.90;;;;;;5041653;28;20106;-86
2023/09/13 09:28:02;;;;;;;4.90;1.55;;;15.80;99.90;;;;;;5045351;28;20036;-87
2023/09/13 09:30:32;;;;;;;5.35;1.83;;;15.80;99.90;;;;;;5068240;28;20532;-86
2023/09/13 09:33:06;;;;;;;4.95;1.60;;;15.80;99.90;;;;;;5070244;28;20033;-87
2023/09/13 09:35:33;;;;;;;5.28;1.60;;;15.80;99.90;;;;;;5072314;28;20060;-87
2023/09/13 09:37:59;;;;;;;5.45;1.60;;;15.80;99.90;;;;;;5085637;28;20119;-89
2023/09/13 09:40:25;;;;;;;5.30;1.50;;;15.80;99.90;;;;;;5073354;28;20043;-87
2023/09/13 09:42:54;;;;;;;5.47;1.58;;;15.70;99.90;;;;;;5059337;28;20191;-89
2023/09/13 09:45:24;;;;;;;4.43;1.70;;;15.70;99.90;;;;;;5072144;28;20068;-86
2023/09/13 09:47:50;;;;;;;4.80;1.58;;;15.60;99.90;;;;;;5088057;28;20033;-87
2023/09/13 09:50:17;;;;;;;5.93;1.75;;;15.60;99.90;;;;;;5059241;28;20095;-87
2023/09/13 09:52:48;;;;;;;4.45;1.50;;;15.60;99.90;;;;;;5068761;28;20543;-86
2023/09/13 09:55:15;;;;;;;4.00;1.38;;;15.60;99.90;;;;;;5068930;28;20059;-87
2023/09/13 09:57:49;;;;;;;4.20;1.50;;;15.70;99.90;;;;;;5055318;28;20074;-87
2023/09/13 10:00:16;;;;;;;4.20;1.40;;;15.80;99.90;;;;;;5086959;28;20044;-87
2023/09/13 10:02:44;;;;;;;6.38;1.90;;;15.90;99.90;;;;;;5090615;28;20356;-87
2023/09/13 10:05:10;;;;;;;6.57;1.70;;;15.90;99.90;;;;;;5062840;28;20040;-87
2023/09/13 10:07:40;;;;;;;5.13;1.70;;;16.00;99.90;;;;;;5056945;28;20101;-86
2023/09/13 10:10:09;;;;;;;6.78;1.77;;;16.20;99.90;;;;;;5068908;28;20028;-87
2023/09/13 10:12:44;;;;;;;4.78;1.60;;;16.30;99.90;;;;;;5053856;28;20047;-86
2023/09/13 10:15:11;;;;;;;4.20;1.55;;;16.40;99.90;;;;;;5088859;28;20123;-86
2023/09/13 10:17:39;;;;;;;5.00;1.60;;;16.50;99.90;;;;;;5072045;28;20567;-87
2023/09/13 10:20:06;;;;;;;4.25;1.60;;;16.70;99.90;;;;;;5063807;28;20044;-86
2023/09/13 10:22:35;;;;;;;4.88;1.55;;;16.80;99.90;;;;;;5068377;28;20044;-86
2023/09/13 10:25:04;;;;;;;5.47;1.85;;;16.90;99.90;;;;;;5075285;28;20357;-86
2023/09/13 10:27:32;;;;;;;5.03;1.52;;;16.90;99.90;;;;;;5068527;28;20555;-86
2023/09/13 10:30:04;;;;;;;5.20;1.63;;;16.90;99.90;;;;;;5085829;28;20170;-86
2023/09/13 10:32:43;;;;;;;4.40;1.52;;;17.00;99.90;;;;;;5057182;28;20145;-85
2023/09/13 10:35:11;;;;;;;5.72;1.70;;;17.00;99.90;;;;;;5071726;28;20052;-87
2023/09/13 10:38:13;;;;;;;5.82;1.90;;;17.10;99.90;;;;;;5071719;28;20040;-86
2023/09/13 10:40:46;;;;;;;7.28;2.05;;;17.20;99.90;;;;;;5051504;28;20131;-86
2023/09/13 10:43:13;;;;;;;4.35;1.77;;;17.40;99.90;;;;;;5064730;28;20055;-87
2023/09/13 10:45:41;;;;;;;5.43;1.60;;;17.50;99.90;;;;;;5071645;28;20056;-85
2023/09/13 10:48:08;;;;;;;6.30;1.90;;;17.60;99.90;;;;;;5088695;28;20047;-87
2023/09/13 10:50:34;;;;;;;5.88;1.80;;;17.60;99.90;;;;;;5068471;28;20257;-86
2023/09/13 10:53:02;;;;;;;5.10;1.90;;;17.80;99.90;;;;;;5062649;28;20115;-87
2023/09/13 10:55:29;;;;;;;5.13;1.70;;;17.80;99.90;;;;;;5071567;28;20032;-86
2023/09/13 10:57:56;;;;;;;5.00;1.50;;;18.00;99.90;;;;;;5071776;28;20051;-85
2023/09/13 11:00:23;;;;;;;4.55;1.40;;;18.10;99.90;;;;;;5069242;28;20523;-86
2023/09/13 11:02:49;;;;;;;4.85;1.65;;;;;;;;;;5032063;28;20390;-86
2023/09/13 11:05:15;;;;;;;5.43;1.50;;;18.20;99.90;;;;;;5062342;28;20076;-85
2023/09/13 11:07:45;;;;;;;4.22;1.48;;;18.10;99.90;;;;;;5089763;28;20047;-86
2023/09/13 11:10:13;;;;;;;3.72;1.52;;;18.00;99.90;;;;;;5068333;28;20055;-86
2023/09/13 11:12:40;;;;;;;5.20;1.42;;;18.00;99.90;;;;;;5066582;28;20097;-85
2023/09/13 11:15:25;;;;;;;3.33;1.27;;;18.10;99.90;;;;;;5084118;28;20044;-86
2023/09/13 11:17:56;;;;;;;3.30;1.30;;;18.20;99.90;;;;;;5059764;28;20044;-86
2023/09/13 11:20:33;;;;;;;4.88;1.60;;;18.20;99.90;;;;;;5089487;28;20039;-85
2023/09/13 11:23:18;;;;;;;3.67;1.38;;;18.20;99.90;;;;;;5066145;28;20292;-86
2023/09/13 11:25:55;;;;;;;3.10;1.27;;;18.30;99.90;;;;;;5056998;28;20136;-86
2023/09/13 11:28:30;;;;;;;3.70;1.40;;;18.00;99.90;;;;;;5071331;28;20130;-86
2023/09/13 11:31:02;;;;;;;3.83;1.33;;;18.40;99.90;;;;;;5071597;28;20080;-87
2023/09/13 11:33:29;;;;;;;2.63;1.35;;;18.40;99.90;;;;;;5066893;28;20049;-86
2023/09/13 11:35:57;;;;;;;4.40;1.40;;;18.50;99.90;;;;;;5062146;28;20049;-87
2023/09/13 11:38:23;;;;;;;4.68;1.42;;;18.40;99.90;;;;;;5042628;28;20053;-85
2023/09/13 11:40:52;;;;;;;4.40;1.42;;;18.40;99.90;;;;;;5068238;28;20522;-86
2023/09/13 11:43:26;;;;;;;3.88;1.48;;;18.50;99.90;;;;;;5051512;28;20044;-86
2023/09/13 11:45:56;;;;;;;3.95;1.40;;;18.50;99.90;;;;;;5044850;28;20041;-85
2023/09/13 11:48:29;;;;;;;4.00;1.27;;;18.50;99.90;;;;;;5058963;28;20048;-86
2023/09/13 11:50:56;;;;;;;3.88;1.33;;;18.60;99.90;;;;;;5046805;28;20052;-86
2023/09/13 11:53:31;;;;;;;7.47;1.70;;;18.70;99.90;;;;;;5044492;28;20049;-85
2023/09/13 11:55:57;;;;;;;5.57;1.50;;;18.70;99.90;;;;;;5066327;28;20047;-86
2023/09/13 11:58:46;;;;;;;6.22;1.65;;;18.70;99.90;;;;;;5067550;28;20425;-85
2023/09/13 12:01:12;;;;;;;5.68;1.50;;;18.60;99.90;;;;;;5054951;28;20049;-85
2023/09/13 12:03:43;;;;;;;5.25;1.50;;;18.60;99.90;;;;;;5062352;28;20354;-86
2023/09/13 12:06:09;;;;;;;5.43;1.58;;;18.70;99.90;;;;;;5054717;28;20044;-86
2023/09/13 12:08:39;;;;;;;6.05;1.63;;;18.70;99.90;;;;;;5066058;28;20052;-85
2023/09/13 12:11:07;;;;;;;3.92;1.38;;;18.50;99.90;;;;;;5050395;28;20043;-86
2023/09/13 12:13:47;;;;;;;7.55;1.83;;;18.40;99.90;;;;;;5068671;28;20119;-86
2023/09/13 12:16:13;;;;;;;6.85;1.52;;;18.20;99.90;;;;;;5065363;28;20130;-86
2023/09/13 12:18:40;;;;;;;6.05;1.70;;;18.10;99.90;;;;;;5067353;28;20052;-86
2023/09/13 12:21:07;;;;;;;5.32;1.70;;;18.00;99.90;;;;;;5046734;28;20049;-86
2023/09/13 12:23:37;;;;;;;6.50;1.75;;;17.90;99.90;;;;;;5062619;28;20128;-86
2023/09/13 12:26:05;;;;;;;5.05;1.30;;;17.90;99.90;;;;;;5059763;28;20044;-86
2023/09/13 12:28:34;;;;;;;6.80;1.65;;;17.90;99.90;;;;;;5067478;28;20140;-86
2023/09/13 12:31:05;;;;;;;4.78;1.60;;;17.90;99.90;;;;;;5071024;28;20094;-86
2023/09/13 12:33:31;;;;;;;5.55;1.48;;;17.90;99.90;;;;;;5068779;28;20442;-85
2023/09/13 12:35:57;;;;;;;8.32;1.83;;;17.90;99.90;;;;;;5065434;28;20135;-86
2023/09/13 12:38:23;;;;;;;6.82;1.80;;;17.90;99.90;;;;;;5068554;28;20425;-86
2023/09/13 12:40:55;;;;;;;5.38;1.60;;;17.90;99.90;;;;;;5071186;28;20057;-86
2023/09/13 12:43:29;;;;;;;6.53;1.85;;;17.90;99.90;;;;;;5070720;28;20045;-86
2023/09/13 12:45:55;;;;;;;3.90;1.40;;;17.80;99.90;;;;;;5065805;28;20072;-86
2023/09/13 12:48:21;;;;;;;4.45;1.40;;;17.80;99.90;;;;;;5052471;28;20129;-86
2023/09/13 12:50:47;;;;;;;5.32;1.58;;;17.70;99.90;;;;;;5053179;28;20501;-85